sensor_id;sensor_type;location;lat;lon;timestamp;P1;durP1;ratioP1;P2;durP2;ratioP2
10144;SDS011;5113;41.822;23.564;2023-12-04T00:00:36;6.13;;;4.47;;
10144;SDS011;5113;41.822;23.564;2023-12-04T00:03:44;5.20;;;3.90;;
10144;SDS011;5113;41.822;23.564;2023-12-04T00:06:50;6.57;;;4.53;;
10144;SDS011;5113;41.822;23.564;2023-12-04T00:09:57;4.40;;;3.60;;
10144;SDS011;5113;41.822;23.564;2023-12-04T00:13:04;6.90;;;4.87;;
10144;SDS011;5113;41.822;23.564;2023-12-04T00:16:12;5.00;;;3.30;;
10144;SDS011;5113;41.822;23.564;2023-12-04T00:19:19;3.77;;;3.37;;
10144;SDS011;5113;41.822;23.564;2023-12-04T00:22:25;6.07;;;4.40;;
10144;SDS011;5113;41.822;23.564;2023-12-04T00:25:33;6.83;;;4.47;;
10144;SDS011;5113;41.822;23.564;2023-12-04T00:28:39;2.70;;;2.50;;
10144;SDS011;5113;41.822;23.564;2023-12-04T00:31:47;4.00;;;3.60;;
10144;SDS011;5113;41.822;23.564;2023-12-04T00:34:54;2.90;;;2.63;;
10144;SDS011;5113;41.822;23.564;2023-12-04T00:38:00;3.77;;;3.03;;
10144;SDS011;5113;41.822;23.564;2023-12-04T00:41:06;3.63;;;2.60;;
10144;SDS011;5113;41.822;23.564;2023-12-04T00:44:13;3.57;;;3.10;;
10144;SDS011;5113;41.822;23.564;2023-12-04T00:47:21;3.97;;;3.20;;
10144;SDS011;5113;41.822;23.564;2023-12-04T00:50:27;4.47;;;4.00;;
10144;SDS011;5113;41.822;23.564;2023-12-04T00:53:34;5.20;;;4.33;;
10144;SDS011;5113;41.822;23.564;2023-12-04T00:56:41;4.50;;;3.53;;
10144;SDS011;5113;41.822;23.564;2023-12-04T00:59:48;20.80;;;8.10;;
10144;SDS011;5113;41.822;23.564;2023-12-04T01:02:56;11.13;;;8.97;;
10144;SDS011;5113;41.822;23.564;2023-12-04T01:06:03;5.60;;;4.30;;
10144;SDS011;5113;41.822;23.564;2023-12-04T01:09:09;4.50;;;4.10;;
10144;SDS011;5113;41.822;23.564;2023-12-04T01:12:16;5.80;;;4.50;;
10144;SDS011;5113;41.822;23.564;2023-12-04T01:15:22;4.30;;;3.90;;
10144;SDS011;5113;41.822;23.564;2023-12-04T01:18:30;6.60;;;3.83;;
10144;SDS011;5113;41.822;23.564;2023-12-04T01:21:38;6.83;;;3.87;;
10144;SDS011;5113;41.822;23.564;2023-12-04T01:24:45;5.80;;;4.00;;
10144;SDS011;5113;41.822;23.564;2023-12-04T01:27:51;4.23;;;3.53;;
10144;SDS011;5113;41.822;23.564;2023-12-04T01:30:57;6.67;;;3.77;;
10144;SDS011;5113;41.822;23.564;2023-12-04T01:34:06;4.00;;;3.60;;
10144;SDS011;5113;41.822;23.564;2023-12-04T01:37:13;4.03;;;3.63;;
10144;SDS011;5113;41.822;23.564;2023-12-04T01:40:19;8.87;;;4.33;;
10144;SDS011;5113;41.822;23.564;2023-12-04T01:43:26;6.07;;;3.97;;
10144;SDS011;5113;41.822;23.564;2023-12-04T01:46:34;5.40;;;3.73;;
10144;SDS011;5113;41.822;23.564;2023-12-04T01:49:42;5.57;;;4.10;;
10144;SDS011;5113;41.822;23.564;2023-12-04T01:52:49;6.03;;;3.93;;
10144;SDS011;5113;41.822;23.564;2023-12-04T01:55:56;5.53;;;3.80;;
10144;SDS011;5113;41.822;23.564;2023-12-04T01:59:03;5.07;;;3.63;;
10144;SDS011;5113;41.822;23.564;2023-12-04T02:02:09;5.17;;;4.00;;
10144;SDS011;5113;41.822;23.564;2023-12-04T02:05:17;6.47;;;3.97;;
10144;SDS011;5113;41.822;23.564;2023-12-04T02:08:25;5.50;;;4.13;;
10144;SDS011;5113;41.822;23.564;2023-12-04T02:11:32;7.20;;;4.57;;
10144;SDS011;5113;41.822;23.564;2023-12-04T02:14:39;6.80;;;4.20;;
10144;SDS011;5113;41.822;23.564;2023-12-04T02:17:45;5.60;;;3.77;;
10144;SDS011;5113;41.822;23.564;2023-12-04T02:20:53;4.97;;;4.57;;
10144;SDS011;5113;41.822;23.564;2023-12-04T02:24:01;3.87;;;3.53;;
10144;SDS011;5113;41.822;23.564;2023-12-04T02:27:10;4.07;;;3.50;;
10144;SDS011;5113;41.822;23.564;2023-12-04T02:30:22;7.37;;;3.47;;
10144;SDS011;5113;41.822;23.564;2023-12-04T02:33:31;5.90;;;3.40;;
10144;SDS011;5113;41.822;23.564;2023-12-04T02:36:39;3.50;;;3.20;;
10144;SDS011;5113;41.822;23.564;2023-12-04T02:39:49;6.07;;;3.80;;
10144;SDS011;5113;41.822;23.564;2023-12-04T02:42:57;3.07;;;2.87;;
10144;SDS011;5113;41.822;23.564;2023-12-04T02:46:04;5.73;;;4.03;;
10144;SDS011;5113;41.822;23.564;2023-12-04T02:49:10;4.60;;;3.67;;
10144;SDS011;5113;41.822;23.564;2023-12-04T02:52:17;4.93;;;3.40;;
10144;SDS011;5113;41.822;23.564;2023-12-04T02:55:25;4.33;;;3.20;;
10144;SDS011;5113;41.822;23.564;2023-12-04T02:58:32;2.80;;;2.60;;
10144;SDS011;5113;41.822;23.564;2023-12-04T03:01:39;5.10;;;3.63;;
10144;SDS011;5113;41.822;23.564;2023-12-04T03:04:46;4.63;;;3.60;;
10144;SDS011;5113;41.822;23.564;2023-12-04T03:07:52;3.80;;;3.50;;
10144;SDS011;5113;41.822;23.564;2023-12-04T03:11:00;9.60;;;3.40;;
10144;SDS011;5113;41.822;23.564;2023-12-04T03:14:07;4.03;;;3.60;;
10144;SDS011;5113;41.822;23.564;2023-12-04T03:17:14;4.07;;;3.03;;
10144;SDS011;5113;41.822;23.564;2023-12-04T03:20:21;16.23;;;8.57;;
10144;SDS011;5113;41.822;23.564;2023-12-04T03:23:27;57.83;;;23.73;;
10144;SDS011;5113;41.822;23.564;2023-12-04T03:26:35;15.33;;;10.20;;
10144;SDS011;5113;41.822;23.564;2023-12-04T03:29:41;17.03;;;9.73;;
10144;SDS011;5113;41.822;23.564;2023-12-04T03:32:48;10.27;;;6.33;;
10144;SDS011;5113;41.822;23.564;2023-12-04T03:35:55;6.27;;;5.03;;
10144;SDS011;5113;41.822;23.564;2023-12-04T03:39:01;5.17;;;4.67;;
10144;SDS011;5113;41.822;23.564;2023-12-04T03:42:10;7.97;;;4.10;;
10144;SDS011;5113;41.822;23.564;2023-12-04T03:45:16;4.60;;;4.03;;
10144;SDS011;5113;41.822;23.564;2023-12-04T03:48:22;8.40;;;5.83;;
10144;SDS011;5113;41.822;23.564;2023-12-04T03:51:29;7.97;;;5.53;;
10144;SDS011;5113;41.822;23.564;2023-12-04T03:54:36;8.97;;;5.43;;
10144;SDS011;5113;41.822;23.564;2023-12-04T03:57:44;9.03;;;5.70;;
10144;SDS011;5113;41.822;23.564;2023-12-04T04:00:50;9.77;;;6.33;;
10144;SDS011;5113;41.822;23.564;2023-12-04T04:03:57;8.70;;;5.73;;
10144;SDS011;5113;41.822;23.564;2023-12-04T04:07:03;14.00;;;7.53;;
10144;SDS011;5113;41.822;23.564;2023-12-04T04:10:10;23.97;;;13.17;;
10144;SDS011;5113;41.822;23.564;2023-12-04T04:13:18;11.70;;;7.57;;
10144;SDS011;5113;41.822;23.564;2023-12-04T04:16:25;8.00;;;5.00;;
10144;SDS011;5113;41.822;23.564;2023-12-04T04:19:31;19.33;;;8.93;;
10144;SDS011;5113;41.822;23.564;2023-12-04T04:22:38;38.47;;;18.50;;
10144;SDS011;5113;41.822;23.564;2023-12-04T04:25:45;10.53;;;6.57;;
10144;SDS011;5113;41.822;23.564;2023-12-04T04:28:53;15.43;;;8.17;;
10144;SDS011;5113;41.822;23.564;2023-12-04T04:31:59;6.47;;;5.00;;
10144;SDS011;5113;41.822;23.564;2023-12-04T04:35:06;4.90;;;4.37;;
10144;SDS011;5113;41.822;23.564;2023-12-04T04:38:13;12.50;;;6.53;;
10144;SDS011;5113;41.822;23.564;2023-12-04T04:41:20;6.90;;;5.13;;
10144;SDS011;5113;41.822;23.564;2023-12-04T04:44:29;5.50;;;4.07;;
10144;SDS011;5113;41.822;23.564;2023-12-04T04:47:36;6.90;;;4.30;;
10144;SDS011;5113;41.822;23.564;2023-12-04T04:50:42;7.27;;;5.13;;
10144;SDS011;5113;41.822;23.564;2023-12-04T04:53:49;8.50;;;5.23;;
10144;SDS011;5113;41.822;23.564;2023-12-04T04:56:56;14.77;;;8.10;;
10144;SDS011;5113;41.822;23.564;2023-12-04T05:00:04;12.77;;;6.23;;
10144;SDS011;5113;41.822;23.564;2023-12-04T05:03:12;6.80;;;5.13;;
10144;SDS011;5113;41.822;23.564;2023-12-04T05:06:19;6.50;;;4.43;;
10144;SDS011;5113;41.822;23.564;2023-12-04T05:09:27;5.60;;;4.03;;
10144;SDS011;5113;41.822;23.564;2023-12-04T05:12:34;10.17;;;7.10;;
10144;SDS011;5113;41.822;23.564;2023-12-04T05:15:42;8.77;;;6.60;;
10144;SDS011;5113;41.822;23.564;2023-12-04T05:18:49;8.80;;;5.20;;
10144;SDS011;5113;41.822;23.564;2023-12-04T05:21:56;8.73;;;5.27;;
10144;SDS011;5113;41.822;23.564;2023-12-04T05:25:02;7.03;;;5.70;;
10144;SDS011;5113;41.822;23.564;2023-12-04T05:28:09;7.70;;;6.07;;
10144;SDS011;5113;41.822;23.564;2023-12-04T05:31:17;35.73;;;14.13;;
10144;SDS011;5113;41.822;23.564;2023-12-04T05:34:24;175.07;;;46.00;;
10144;SDS011;5113;41.822;23.564;2023-12-04T05:37:30;157.50;;;42.57;;
10144;SDS011;5113;41.822;23.564;2023-12-04T05:40:36;129.20;;;40.50;;
10144;SDS011;5113;41.822;23.564;2023-12-04T05:43:43;53.03;;;20.57;;
10144;SDS011;5113;41.822;23.564;2023-12-04T05:46:51;17.23;;;8.87;;
10144;SDS011;5113;41.822;23.564;2023-12-04T05:49:58;17.37;;;9.27;;
10144;SDS011;5113;41.822;23.564;2023-12-04T05:53:05;14.37;;;9.20;;
10144;SDS011;5113;41.822;23.564;2023-12-04T05:56:12;10.37;;;8.10;;
10144;SDS011;5113;41.822;23.564;2023-12-04T05:59:19;6.83;;;6.03;;
10144;SDS011;5113;41.822;23.564;2023-12-04T06:02:27;10.77;;;7.17;;
10144;SDS011;5113;41.822;23.564;2023-12-04T06:05:35;158.83;;;68.33;;
10144;SDS011;5113;41.822;23.564;2023-12-04T06:08:42;22.50;;;11.13;;
10144;SDS011;5113;41.822;23.564;2023-12-04T06:11:48;15.47;;;8.07;;
10144;SDS011;5113;41.822;23.564;2023-12-04T06:14:55;9.73;;;7.10;;
10144;SDS011;5113;41.822;23.564;2023-12-04T06:18:02;14.60;;;9.50;;
10144;SDS011;5113;41.822;23.564;2023-12-04T06:21:10;11.13;;;7.83;;
10144;SDS011;5113;41.822;23.564;2023-12-04T06:24:17;17.10;;;10.33;;
10144;SDS011;5113;41.822;23.564;2023-12-04T06:27:24;13.43;;;9.33;;
10144;SDS011;5113;41.822;23.564;2023-12-04T06:30:31;33.53;;;19.13;;
10144;SDS011;5113;41.822;23.564;2023-12-04T06:33:40;29.60;;;15.40;;
10144;SDS011;5113;41.822;23.564;2023-12-04T06:36:48;20.73;;;10.23;;
10144;SDS011;5113;41.822;23.564;2023-12-04T06:39:55;13.60;;;7.73;;
10144;SDS011;5113;41.822;23.564;2023-12-04T06:43:06;21.93;;;11.20;;
10144;SDS011;5113;41.822;23.564;2023-12-04T06:46:13;15.10;;;9.40;;
10144;SDS011;5113;41.822;23.564;2023-12-04T06:49:23;7.63;;;5.53;;
10144;SDS011;5113;41.822;23.564;2023-12-04T06:52:31;8.63;;;6.00;;
10144;SDS011;5113;41.822;23.564;2023-12-04T06:55:37;9.60;;;5.17;;
10144;SDS011;5113;41.822;23.564;2023-12-04T06:58:43;9.43;;;7.77;;
10144;SDS011;5113;41.822;23.564;2023-12-04T07:01:50;9.53;;;5.53;;
10144;SDS011;5113;41.822;23.564;2023-12-04T07:04:58;7.67;;;6.57;;
10144;SDS011;5113;41.822;23.564;2023-12-04T07:08:05;11.43;;;6.77;;
10144;SDS011;5113;41.822;23.564;2023-12-04T07:11:11;7.50;;;6.07;;
10144;SDS011;5113;41.822;23.564;2023-12-04T07:14:18;9.40;;;6.20;;
10144;SDS011;5113;41.822;23.564;2023-12-04T07:17:25;8.77;;;6.00;;
10144;SDS011;5113;41.822;23.564;2023-12-04T07:20:33;13.73;;;7.90;;
10144;SDS011;5113;41.822;23.564;2023-12-04T07:23:39;12.53;;;7.23;;
10144;SDS011;5113;41.822;23.564;2023-12-04T07:26:46;7.63;;;5.00;;
10144;SDS011;5113;41.822;23.564;2023-12-04T07:29:52;11.67;;;7.37;;
10144;SDS011;5113;41.822;23.564;2023-12-04T07:32:59;9.37;;;6.67;;
10144;SDS011;5113;41.822;23.564;2023-12-04T07:36:07;9.97;;;6.87;;
10144;SDS011;5113;41.822;23.564;2023-12-04T07:39:14;9.97;;;7.60;;
10144;SDS011;5113;41.822;23.564;2023-12-04T07:42:21;8.57;;;5.70;;
10144;SDS011;5113;41.822;23.564;2023-12-04T07:45:27;9.07;;;6.17;;
10144;SDS011;5113;41.822;23.564;2023-12-04T07:48:34;13.47;;;8.77;;
10144;SDS011;5113;41.822;23.564;2023-12-04T07:51:42;17.57;;;10.67;;
10144;SDS011;5113;41.822;23.564;2023-12-04T07:54:49;17.33;;;10.37;;
10144;SDS011;5113;41.822;23.564;2023-12-04T07:57:56;17.63;;;10.97;;
10144;SDS011;5113;41.822;23.564;2023-12-04T08:01:04;45.17;;;23.83;;
10144;SDS011;5113;41.822;23.564;2023-12-04T08:04:11;17.20;;;10.00;;
10144;SDS011;5113;41.822;23.564;2023-12-04T08:07:19;26.00;;;13.90;;
10144;SDS011;5113;41.822;23.564;2023-12-04T08:10:25;30.47;;;20.70;;
10144;SDS011;5113;41.822;23.564;2023-12-04T08:13:32;18.17;;;11.43;;
10144;SDS011;5113;41.822;23.564;2023-12-04T08:16:39;29.30;;;10.93;;
10144;SDS011;5113;41.822;23.564;2023-12-04T08:19:45;19.60;;;10.40;;
10144;SDS011;5113;41.822;23.564;2023-12-04T08:22:58;18.87;;;8.20;;
10144;SDS011;5113;41.822;23.564;2023-12-04T08:26:05;7.90;;;6.23;;
10144;SDS011;5113;41.822;23.564;2023-12-04T08:29:13;9.47;;;6.33;;
10144;SDS011;5113;41.822;23.564;2023-12-04T08:32:20;13.93;;;8.07;;
10144;SDS011;5113;41.822;23.564;2023-12-04T08:35:27;16.23;;;8.90;;
10144;SDS011;5113;41.822;23.564;2023-12-04T08:38:35;9.13;;;6.83;;
10144;SDS011;5113;41.822;23.564;2023-12-04T08:41:44;9.20;;;5.97;;
10144;SDS011;5113;41.822;23.564;2023-12-04T08:45:05;15.60;;;7.63;;
10144;SDS011;5113;41.822;23.564;2023-12-04T08:48:13;24.33;;;12.73;;
10144;SDS011;5113;41.822;23.564;2023-12-04T08:51:20;12.17;;;8.40;;
10144;SDS011;5113;41.822;23.564;2023-12-04T08:54:28;7.90;;;5.63;;
10144;SDS011;5113;41.822;23.564;2023-12-04T08:57:35;7.60;;;5.83;;
10144;SDS011;5113;41.822;23.564;2023-12-04T09:00:42;10.47;;;5.90;;
10144;SDS011;5113;41.822;23.564;2023-12-04T09:03:49;29.70;;;15.03;;
10144;SDS011;5113;41.822;23.564;2023-12-04T09:06:55;12.20;;;8.20;;
10144;SDS011;5113;41.822;23.564;2023-12-04T09:10:06;7.20;;;5.13;;
10144;SDS011;5113;41.822;23.564;2023-12-04T09:13:24;9.37;;;5.93;;
10144;SDS011;5113;41.822;23.564;2023-12-04T09:16:30;16.50;;;10.17;;
10144;SDS011;5113;41.822;23.564;2023-12-04T09:19:36;7.03;;;6.33;;
10144;SDS011;5113;41.822;23.564;2023-12-04T09:22:43;43.33;;;16.03;;
10144;SDS011;5113;41.822;23.564;2023-12-04T09:25:57;19.93;;;11.63;;
10144;SDS011;5113;41.822;23.564;2023-12-04T09:29:04;37.83;;;16.40;;
10144;SDS011;5113;41.822;23.564;2023-12-04T09:32:10;12.53;;;8.27;;
10144;SDS011;5113;41.822;23.564;2023-12-04T09:35:16;7.13;;;5.47;;
10144;SDS011;5113;41.822;23.564;2023-12-04T09:38:23;25.60;;;11.63;;
10144;SDS011;5113;41.822;23.564;2023-12-04T09:41:31;8.87;;;5.10;;
10144;SDS011;5113;41.822;23.564;2023-12-04T09:44:38;25.17;;;11.57;;
10144;SDS011;5113;41.822;23.564;2023-12-04T09:47:46;12.73;;;8.33;;
10144;SDS011;5113;41.822;23.564;2023-12-04T09:50:54;17.27;;;7.20;;
10144;SDS011;5113;41.822;23.564;2023-12-04T09:54:03;10.67;;;6.67;;
10144;SDS011;5113;41.822;23.564;2023-12-04T09:57:11;11.20;;;6.63;;
10144;SDS011;5113;41.822;23.564;2023-12-04T10:00:19;18.40;;;8.00;;
10144;SDS011;5113;41.822;23.564;2023-12-04T10:03:27;8.60;;;4.90;;
10144;SDS011;5113;41.822;23.564;2023-12-04T10:06:35;8.50;;;6.00;;
10144;SDS011;5113;41.822;23.564;2023-12-04T10:09:43;5.87;;;4.90;;
10144;SDS011;5113;41.822;23.564;2023-12-04T10:12:51;9.37;;;6.63;;
10144;SDS011;5113;41.822;23.564;2023-12-04T10:15:58;10.40;;;5.00;;
10144;SDS011;5113;41.822;23.564;2023-12-04T10:19:15;6.60;;;4.37;;
10144;SDS011;5113;41.822;23.564;2023-12-04T10:22:23;8.67;;;4.90;;
10144;SDS011;5113;41.822;23.564;2023-12-04T10:25:30;16.50;;;7.93;;
10144;SDS011;5113;41.822;23.564;2023-12-04T10:28:38;11.20;;;7.90;;
10144;SDS011;5113;41.822;23.564;2023-12-04T10:31:45;8.10;;;5.63;;
10144;SDS011;5113;41.822;23.564;2023-12-04T10:34:53;5.27;;;4.63;;
10144;SDS011;5113;41.822;23.564;2023-12-04T10:38:00;16.90;;;9.37;;
10144;SDS011;5113;41.822;23.564;2023-12-04T10:41:11;17.00;;;8.60;;
10144;SDS011;5113;41.822;23.564;2023-12-04T10:44:20;12.33;;;7.13;;
10144;SDS011;5113;41.822;23.564;2023-12-04T10:47:29;6.77;;;4.90;;
10144;SDS011;5113;41.822;23.564;2023-12-04T10:50:36;5.27;;;4.13;;
10144;SDS011;5113;41.822;23.564;2023-12-04T10:53:44;15.17;;;8.37;;
10144;SDS011;5113;41.822;23.564;2023-12-04T10:56:51;8.43;;;6.80;;
10144;SDS011;5113;41.822;23.564;2023-12-04T11:00:01;15.40;;;9.10;;
10144;SDS011;5113;41.822;23.564;2023-12-04T11:03:13;7.40;;;5.50;;
10144;SDS011;5113;41.822;23.564;2023-12-04T11:06:25;7.40;;;5.33;;
10144;SDS011;5113;41.822;23.564;2023-12-04T11:09:35;17.10;;;8.40;;
10144;SDS011;5113;41.822;23.564;2023-12-04T11:12:44;8.27;;;6.90;;
10144;SDS011;5113;41.822;23.564;2023-12-04T11:15:55;7.87;;;5.77;;
10144;SDS011;5113;41.822;23.564;2023-12-04T11:19:06;8.70;;;5.73;;
10144;SDS011;5113;41.822;23.564;2023-12-04T11:22:22;7.30;;;5.03;;
10144;SDS011;5113;41.822;23.564;2023-12-04T11:25:31;5.83;;;4.67;;
10144;SDS011;5113;41.822;23.564;2023-12-04T11:28:39;6.83;;;5.13;;
10144;SDS011;5113;41.822;23.564;2023-12-04T11:31:49;5.93;;;5.10;;
10144;SDS011;5113;41.822;23.564;2023-12-04T11:34:58;4.47;;;3.87;;
10144;SDS011;5113;41.822;23.564;2023-12-04T11:38:07;10.40;;;7.63;;
10144;SDS011;5113;41.822;23.564;2023-12-04T11:41:17;4.67;;;4.10;;
10144;SDS011;5113;41.822;23.564;2023-12-04T11:44:31;8.13;;;5.40;;
10144;SDS011;5113;41.822;23.564;2023-12-04T11:51:02;9.97;;;6.67;;
10144;SDS011;5113;41.822;23.564;2023-12-04T11:54:09;11.67;;;7.43;;
10144;SDS011;5113;41.822;23.564;2023-12-04T11:57:20;8.23;;;4.90;;
10144;SDS011;5113;41.822;23.564;2023-12-04T12:00:29;8.07;;;6.40;;
10144;SDS011;5113;41.822;23.564;2023-12-04T12:03:37;11.40;;;5.97;;
10144;SDS011;5113;41.822;23.564;2023-12-04T12:06:44;5.07;;;4.50;;
10144;SDS011;5113;41.822;23.564;2023-12-04T12:09:51;5.20;;;4.70;;
10144;SDS011;5113;41.822;23.564;2023-12-04T12:12:58;9.43;;;6.63;;
10144;SDS011;5113;41.822;23.564;2023-12-04T12:16:05;5.23;;;4.73;;
10144;SDS011;5113;41.822;23.564;2023-12-04T12:19:13;6.67;;;5.43;;
10144;SDS011;5113;41.822;23.564;2023-12-04T12:22:20;11.63;;;6.40;;
10144;SDS011;5113;41.822;23.564;2023-12-04T12:25:27;8.80;;;6.63;;
10144;SDS011;5113;41.822;23.564;2023-12-04T12:28:35;9.97;;;7.17;;
10144;SDS011;5113;41.822;23.564;2023-12-04T12:31:42;10.70;;;6.63;;
10144;SDS011;5113;41.822;23.564;2023-12-04T12:34:52;12.17;;;7.77;;
10144;SDS011;5113;41.822;23.564;2023-12-04T12:38:00;18.80;;;9.30;;
10144;SDS011;5113;41.822;23.564;2023-12-04T12:41:06;8.27;;;5.13;;
10144;SDS011;5113;41.822;23.564;2023-12-04T12:44:15;6.40;;;5.17;;
10144;SDS011;5113;41.822;23.564;2023-12-04T12:47:22;19.37;;;10.37;;
10144;SDS011;5113;41.822;23.564;2023-12-04T12:50:31;30.80;;;12.37;;
10144;SDS011;5113;41.822;23.564;2023-12-04T12:53:37;21.30;;;12.20;;
10144;SDS011;5113;41.822;23.564;2023-12-04T12:56:43;6.77;;;5.03;;
10144;SDS011;5113;41.822;23.564;2023-12-04T12:59:50;7.27;;;4.17;;
10144;SDS011;5113;41.822;23.564;2023-12-04T13:02:59;6.23;;;4.40;;
10144;SDS011;5113;41.822;23.564;2023-12-04T13:06:08;6.07;;;5.27;;
10144;SDS011;5113;41.822;23.564;2023-12-04T13:09:15;25.77;;;17.20;;
10144;SDS011;5113;41.822;23.564;2023-12-04T13:12:23;40.73;;;20.47;;
10144;SDS011;5113;41.822;23.564;2023-12-04T13:15:29;45.77;;;22.63;;
10144;SDS011;5113;41.822;23.564;2023-12-04T13:18:36;58.73;;;34.13;;
10144;SDS011;5113;41.822;23.564;2023-12-04T13:21:45;23.10;;;16.83;;
10144;SDS011;5113;41.822;23.564;2023-12-04T13:24:51;58.17;;;33.10;;
10144;SDS011;5113;41.822;23.564;2023-12-04T13:27:58;23.77;;;14.20;;
10144;SDS011;5113;41.822;23.564;2023-12-04T13:31:04;11.70;;;8.30;;
10144;SDS011;5113;41.822;23.564;2023-12-04T13:34:11;44.13;;;26.90;;
10144;SDS011;5113;41.822;23.564;2023-12-04T13:37:19;41.73;;;24.17;;
10144;SDS011;5113;41.822;23.564;2023-12-04T13:40:29;51.60;;;27.37;;
10144;SDS011;5113;41.822;23.564;2023-12-04T13:43:37;49.73;;;31.23;;
10144;SDS011;5113;41.822;23.564;2023-12-04T13:46:57;51.30;;;29.93;;
10144;SDS011;5113;41.822;23.564;2023-12-04T13:50:05;50.70;;;28.97;;
10144;SDS011;5113;41.822;23.564;2023-12-04T13:53:15;93.07;;;41.43;;
10144;SDS011;5113;41.822;23.564;2023-12-04T13:56:25;117.97;;;52.67;;
10144;SDS011;5113;41.822;23.564;2023-12-04T13:59:46;51.60;;;28.53;;
10144;SDS011;5113;41.822;23.564;2023-12-04T14:02:53;49.50;;;23.13;;
10144;SDS011;5113;41.822;23.564;2023-12-04T14:06:09;39.73;;;22.20;;
10144;SDS011;5113;41.822;23.564;2023-12-04T14:09:18;37.90;;;20.50;;
10144;SDS011;5113;41.822;23.564;2023-12-04T14:12:25;35.93;;;21.87;;
10144;SDS011;5113;41.822;23.564;2023-12-04T14:15:32;81.53;;;46.63;;
10144;SDS011;5113;41.822;23.564;2023-12-04T14:18:39;50.77;;;33.77;;
10144;SDS011;5113;41.822;23.564;2023-12-04T14:21:46;41.70;;;27.47;;
10144;SDS011;5113;41.822;23.564;2023-12-04T14:24:55;36.93;;;22.80;;
10144;SDS011;5113;41.822;23.564;2023-12-04T14:28:01;75.63;;;41.03;;
10144;SDS011;5113;41.822;23.564;2023-12-04T14:31:08;42.63;;;24.13;;
10144;SDS011;5113;41.822;23.564;2023-12-04T14:34:16;66.90;;;35.17;;
10144;SDS011;5113;41.822;23.564;2023-12-04T14:37:23;86.23;;;44.37;;
10144;SDS011;5113;41.822;23.564;2023-12-04T14:40:32;53.47;;;30.47;;
10144;SDS011;5113;41.822;23.564;2023-12-04T14:43:38;46.90;;;24.93;;
10144;SDS011;5113;41.822;23.564;2023-12-04T14:46:45;44.67;;;24.57;;
10144;SDS011;5113;41.822;23.564;2023-12-04T14:49:51;48.00;;;26.47;;
10144;SDS011;5113;41.822;23.564;2023-12-04T14:53:00;63.03;;;38.30;;
10144;SDS011;5113;41.822;23.564;2023-12-04T14:56:21;60.33;;;37.87;;
10144;SDS011;5113;41.822;23.564;2023-12-04T14:59:47;54.40;;;37.00;;
10144;SDS011;5113;41.822;23.564;2023-12-04T15:03:24;49.30;;;28.33;;
10144;SDS011;5113;41.822;23.564;2023-12-04T15:07:01;53.47;;;31.47;;
10144;SDS011;5113;41.822;23.564;2023-12-04T15:10:28;67.50;;;36.73;;
10144;SDS011;5113;41.822;23.564;2023-12-04T15:13:56;56.60;;;32.73;;
10144;SDS011;5113;41.822;23.564;2023-12-04T15:17:13;49.13;;;27.27;;
10144;SDS011;5113;41.822;23.564;2023-12-04T15:20:23;44.60;;;24.57;;
10144;SDS011;5113;41.822;23.564;2023-12-04T15:23:42;81.80;;;44.50;;
10144;SDS011;5113;41.822;23.564;2023-12-04T15:26:49;128.33;;;59.70;;
10144;SDS011;5113;41.822;23.564;2023-12-04T15:29:57;103.60;;;52.43;;
10144;SDS011;5113;41.822;23.564;2023-12-04T15:33:04;92.67;;;47.33;;
10144;SDS011;5113;41.822;23.564;2023-12-04T15:36:10;105.23;;;54.17;;
10144;SDS011;5113;41.822;23.564;2023-12-04T15:39:17;119.20;;;57.03;;
10144;SDS011;5113;41.822;23.564;2023-12-04T15:42:24;111.47;;;56.47;;
10144;SDS011;5113;41.822;23.564;2023-12-04T15:45:33;60.57;;;33.10;;
10144;SDS011;5113;41.822;23.564;2023-12-04T15:48:40;43.10;;;25.63;;
10144;SDS011;5113;41.822;23.564;2023-12-04T15:51:47;48.10;;;24.93;;
10144;SDS011;5113;41.822;23.564;2023-12-04T15:54:53;124.50;;;57.60;;
10144;SDS011;5113;41.822;23.564;2023-12-04T15:57:59;121.67;;;58.10;;
10144;SDS011;5113;41.822;23.564;2023-12-04T16:01:07;113.13;;;56.07;;
10144;SDS011;5113;41.822;23.564;2023-12-04T16:04:14;90.87;;;44.50;;
10144;SDS011;5113;41.822;23.564;2023-12-04T16:07:20;102.23;;;48.87;;
10144;SDS011;5113;41.822;23.564;2023-12-04T16:10:27;73.97;;;36.63;;
10144;SDS011;5113;41.822;23.564;2023-12-04T16:13:34;106.33;;;53.27;;
10144;SDS011;5113;41.822;23.564;2023-12-04T16:16:41;131.33;;;66.87;;
10144;SDS011;5113;41.822;23.564;2023-12-04T16:19:48;139.70;;;62.50;;
10144;SDS011;5113;41.822;23.564;2023-12-04T16:22:56;97.37;;;41.43;;
10144;SDS011;5113;41.822;23.564;2023-12-04T16:26:03;72.00;;;37.00;;
10144;SDS011;5113;41.822;23.564;2023-12-04T16:29:11;39.20;;;21.87;;
10144;SDS011;5113;41.822;23.564;2023-12-04T16:32:20;105.30;;;43.77;;
10144;SDS011;5113;41.822;23.564;2023-12-04T16:35:27;51.23;;;26.57;;
10144;SDS011;5113;41.822;23.564;2023-12-04T16:38:33;30.47;;;18.97;;
10144;SDS011;5113;41.822;23.564;2023-12-04T16:41:40;39.70;;;24.90;;
10144;SDS011;5113;41.822;23.564;2023-12-04T16:44:47;57.10;;;31.10;;
10144;SDS011;5113;41.822;23.564;2023-12-04T16:47:54;71.10;;;37.63;;
10144;SDS011;5113;41.822;23.564;2023-12-04T16:51:02;78.90;;;36.63;;
10144;SDS011;5113;41.822;23.564;2023-12-04T16:54:09;92.87;;;45.43;;
10144;SDS011;5113;41.822;23.564;2023-12-04T16:57:15;200.40;;;90.23;;
10144;SDS011;5113;41.822;23.564;2023-12-04T17:00:22;95.33;;;44.87;;
10144;SDS011;5113;41.822;23.564;2023-12-04T17:03:30;52.23;;;27.57;;
10144;SDS011;5113;41.822;23.564;2023-12-04T17:06:37;47.67;;;26.37;;
10144;SDS011;5113;41.822;23.564;2023-12-04T17:09:44;78.30;;;40.67;;
10144;SDS011;5113;41.822;23.564;2023-12-04T17:12:50;121.53;;;62.50;;
10144;SDS011;5113;41.822;23.564;2023-12-04T17:15:57;139.07;;;63.63;;
10144;SDS011;5113;41.822;23.564;2023-12-04T17:19:05;93.03;;;43.43;;
10144;SDS011;5113;41.822;23.564;2023-12-04T17:22:13;169.53;;;69.87;;
10144;SDS011;5113;41.822;23.564;2023-12-04T17:25:20;124.30;;;57.13;;
10144;SDS011;5113;41.822;23.564;2023-12-04T17:28:27;147.63;;;70.20;;
10144;SDS011;5113;41.822;23.564;2023-12-04T17:31:33;160.13;;;74.27;;
10144;SDS011;5113;41.822;23.564;2023-12-04T17:34:41;354.80;;;130.33;;
10144;SDS011;5113;41.822;23.564;2023-12-04T17:37:49;264.97;;;102.13;;
10144;SDS011;5113;41.822;23.564;2023-12-04T17:40:55;363.67;;;129.00;;
10144;SDS011;5113;41.822;23.564;2023-12-04T17:44:02;331.00;;;120.20;;
10144;SDS011;5113;41.822;23.564;2023-12-04T17:47:09;319.43;;;116.80;;
10144;SDS011;5113;41.822;23.564;2023-12-04T17:50:18;290.63;;;108.07;;
10144;SDS011;5113;41.822;23.564;2023-12-04T17:53:25;265.17;;;102.57;;
10144;SDS011;5113;41.822;23.564;2023-12-04T17:56:32;236.77;;;104.77;;
10144;SDS011;5113;41.822;23.564;2023-12-04T17:59:39;199.33;;;80.87;;
10144;SDS011;5113;41.822;23.564;2023-12-04T18:02:46;162.67;;;67.83;;
10144;SDS011;5113;41.822;23.564;2023-12-04T18:05:54;168.03;;;69.00;;
10144;SDS011;5113;41.822;23.564;2023-12-04T18:09:01;137.07;;;58.13;;
10144;SDS011;5113;41.822;23.564;2023-12-04T18:12:08;85.57;;;39.30;;
10144;SDS011;5113;41.822;23.564;2023-12-04T18:15:15;80.50;;;37.33;;
10144;SDS011;5113;41.822;23.564;2023-12-04T18:18:21;94.37;;;40.57;;
10144;SDS011;5113;41.822;23.564;2023-12-04T18:21:30;96.50;;;46.10;;
10144;SDS011;5113;41.822;23.564;2023-12-04T18:24:38;105.90;;;45.83;;
10144;SDS011;5113;41.822;23.564;2023-12-04T18:27:44;66.57;;;34.17;;
10144;SDS011;5113;41.822;23.564;2023-12-04T18:30:52;67.07;;;32.67;;
10144;SDS011;5113;41.822;23.564;2023-12-04T18:33:59;67.07;;;35.53;;
10144;SDS011;5113;41.822;23.564;2023-12-04T18:37:10;84.33;;;41.53;;